createdAt,value
2022-12-28T00:01:44.306Z,4.57
2022-12-28T00:04:14.245Z,5.47
2022-12-28T00:06:40.980Z,4.57
2022-12-28T00:09:10.681Z,3.93
2022-12-28T00:11:37.573Z,4.30
2022-12-28T00:14:05.216Z,5.70
2022-12-28T00:16:34.163Z,4.67
2022-12-28T00:19:03.035Z,4.20
2022-12-28T00:21:30.842Z,3.80
2022-12-28T00:23:59.112Z,4.70
2022-12-28T00:26:27.669Z,4.50
2022-12-28T00:28:59.965Z,4.00
2022-12-28T00:31:32.586Z,3.83
2022-12-28T00:33:59.390Z,3.40
2022-12-28T00:37:11.289Z,3.70
2022-12-28T00:39:13.001Z,4.20
2022-12-28T00:41:39.791Z,3.60
2022-12-28T00:44:06.610Z,3.70
2022-12-28T00:46:33.929Z,3.17
2022-12-28T00:49:00.732Z,4.63
2022-12-28T00:51:27.504Z,4.27
2022-12-28T00:53:54.260Z,3.60
2022-12-28T00:56:22.898Z,3.67
2022-12-28T00:58:50.088Z,4.07
2022-12-28T01:01:19.392Z,4.33
2022-12-28T01:03:47.484Z,3.30
2022-12-28T01:06:16.513Z,3.57
2022-12-28T01:08:43.391Z,4.07
2022-12-28T01:11:11.799Z,3.83
2022-12-28T01:13:38.742Z,3.80
2022-12-28T01:16:12.468Z,3.40
2022-12-28T01:18:39.267Z,3.83
2022-12-28T01:21:15.382Z,4.13
2022-12-28T01:23:42.556Z,4.33
2022-12-28T01:26:09.394Z,3.17
2022-12-28T01:28:36.901Z,3.93
2022-12-28T01:31:04.962Z,4.03
2022-12-28T01:33:31.601Z,3.60
2022-12-28T01:35:58.323Z,3.70
2022-12-28T01:38:25.636Z,3.23
2022-12-28T01:40:52.320Z,3.67
2022-12-28T01:43:29.451Z,4.13
2022-12-28T01:45:56.863Z,3.47
2022-12-28T01:48:25.364Z,4.10
2022-12-28T01:50:52.974Z,3.87
2022-12-28T01:53:20.442Z,2.73
2022-12-28T01:55:48.688Z,4.53
2022-12-28T01:58:21.317Z,3.43
2022-12-28T02:00:48.102Z,4.07
2022-12-28T02:03:18.377Z,4.27
2022-12-28T02:05:48.199Z,3.90
2022-12-28T02:08:21.879Z,3.33
2022-12-28T02:10:51.393Z,3.60
2022-12-28T02:13:19.497Z,3.77
2022-12-28T02:15:46.555Z,4.50
2022-12-28T02:18:14.721Z,4.50
2022-12-28T02:20:57.317Z,3.57
2022-12-28T02:23:45.508Z,4.13
2022-12-28T02:26:42.784Z,3.23
2022-12-28T02:29:42.652Z,3.43
2022-12-28T02:32:24.732Z,4.13
2022-12-28T02:35:01.375Z,4.23
2022-12-28T02:37:32.764Z,3.90
2022-12-28T02:40:04.792Z,4.03
2022-12-28T02:42:34.214Z,4.10
2022-12-28T02:45:19.975Z,4.13
2022-12-28T02:48:02.607Z,3.90
2022-12-28T02:50:39.552Z,3.77
2022-12-28T02:53:25.539Z,4.10
2022-12-28T02:56:09.364Z,4.27
2022-12-28T02:59:15.387Z,3.50
2022-12-28T03:02:18.807Z,4.17
2022-12-28T03:05:02.445Z,3.80
2022-12-28T03:07:54.378Z,4.43
2022-12-28T03:10:26.012Z,4.00
2022-12-28T03:13:00.785Z,4.27
2022-12-28T03:15:32.300Z,4.23
2022-12-28T03:18:22.751Z,4.47
2022-12-28T03:21:09.100Z,4.27
2022-12-28T03:23:56.730Z,4.23
2022-12-28T03:26:42.260Z,4.40
2022-12-28T03:29:30.307Z,4.27
2022-12-28T03:31:57.022Z,4.47
2022-12-28T03:34:24.850Z,4.27
2022-12-28T03:36:58.158Z,4.00
2022-12-28T03:39:33.999Z,4.77
2022-12-28T03:42:24.642Z,4.47
2022-12-28T03:44:57.887Z,4.13
2022-12-28T03:47:27.315Z,3.67
2022-12-28T03:49:54.840Z,4.20
2022-12-28T03:52:21.811Z,3.70
2022-12-28T03:54:48.480Z,4.33
2022-12-28T03:57:16.293Z,4.23
2022-12-28T03:59:43.005Z,3.33
2022-12-28T04:02:09.730Z,3.40
2022-12-28T04:04:36.446Z,3.53
2022-12-28T04:07:03.767Z,3.97
2022-12-28T04:09:31.818Z,3.37
2022-12-28T04:11:58.506Z,4.00
2022-12-28T04:14:25.268Z,4.20
2022-12-28T04:16:51.962Z,3.63
2022-12-28T04:19:18.658Z,3.67
2022-12-28T04:21:47.370Z,3.33
2022-12-28T04:24:14.714Z,3.37
2022-12-28T04:26:41.608Z,3.30
2022-12-28T04:29:08.551Z,4.60
2022-12-28T04:31:35.295Z,3.70
2022-12-28T04:34:02.191Z,3.57
2022-12-28T04:36:28.879Z,3.30
2022-12-28T04:38:55.556Z,3.10
2022-12-28T04:41:24.316Z,2.50
2022-12-28T04:43:51.305Z,2.87
2022-12-28T04:46:18.124Z,3.20
2022-12-28T04:48:44.856Z,3.17
2022-12-28T04:51:16.537Z,2.90
2022-12-28T04:53:43.375Z,3.23
2022-12-28T04:56:11.596Z,2.97
2022-12-28T04:58:39.406Z,2.63
2022-12-28T05:01:07.815Z,3.00
2022-12-28T05:03:35.207Z,3.37
2022-12-28T05:06:02.366Z,2.80
2022-12-28T05:08:31.103Z,3.00
2022-12-28T05:11:00.006Z,3.27
2022-12-28T05:13:26.726Z,2.40
2022-12-28T05:15:54.227Z,3.03
2022-12-28T05:18:20.855Z,2.73
2022-12-28T05:20:47.481Z,2.67
2022-12-28T05:23:14.098Z,2.70
2022-12-28T05:25:40.728Z,3.27
2022-12-28T05:28:07.393Z,2.60
2022-12-28T05:30:33.986Z,3.17
2022-12-28T05:33:01.344Z,3.50
2022-12-28T05:35:27.992Z,2.53
2022-12-28T05:37:54.639Z,2.70
2022-12-28T05:40:21.281Z,2.63
2022-12-28T05:42:51.509Z,2.27
2022-12-28T05:45:18.621Z,2.97
2022-12-28T05:47:45.289Z,3.00
2022-12-28T05:50:12.605Z,2.87
2022-12-28T05:52:39.214Z,2.90
2022-12-28T05:55:06.444Z,2.80
2022-12-28T05:57:33.083Z,2.73
2022-12-28T05:59:59.744Z,2.27
2022-12-28T06:02:26.964Z,2.87
2022-12-28T06:04:53.790Z,2.70
2022-12-28T06:07:21.475Z,3.00
2022-12-28T06:09:49.330Z,2.23
2022-12-28T06:12:16.084Z,2.30
2022-12-28T06:14:42.686Z,2.80
2022-12-28T06:17:09.328Z,2.30
2022-12-28T06:19:35.967Z,2.53
2022-12-28T06:22:02.645Z,3.30
2022-12-28T06:24:30.020Z,2.47
2022-12-28T06:26:56.649Z,2.20
2022-12-28T06:29:23.298Z,2.47
2022-12-28T06:31:50.735Z,2.37
2022-12-28T06:34:17.813Z,3.10
2022-12-28T06:36:45.745Z,2.23
2022-12-28T06:39:14.025Z,3.10
2022-12-28T06:41:41.738Z,2.70
2022-12-28T06:44:10.060Z,2.13
2022-12-28T06:46:37.195Z,2.60
2022-12-28T06:49:04.038Z,2.37
2022-12-28T06:51:35.380Z,2.93
2022-12-28T06:54:02.926Z,2.67
2022-12-28T06:56:31.605Z,2.33
2022-12-28T06:59:03.260Z,2.57
2022-12-28T07:01:38.659Z,2.57
2022-12-28T07:04:07.394Z,3.03
2022-12-28T07:06:36.186Z,4.60
2022-12-28T07:09:05.297Z,3.03
2022-12-28T07:11:32.303Z,3.03
2022-12-28T07:13:59.828Z,3.13
2022-12-28T07:18:55.313Z,3.13
2022-12-28T07:21:24.268Z,3.37
2022-12-28T07:23:52.826Z,3.60
2022-12-28T07:26:21.654Z,3.37
2022-12-28T07:28:50.051Z,3.70
2022-12-28T07:31:18.909Z,4.03
2022-12-28T07:33:46.357Z,3.20
2022-12-28T07:36:16.223Z,3.23
2022-12-28T07:38:43.324Z,3.27
2022-12-28T07:41:12.129Z,4.13
2022-12-28T07:43:39.026Z,4.33
2022-12-28T07:46:08.631Z,3.73
2022-12-28T07:48:36.757Z,4.07
2022-12-28T07:51:09.770Z,3.23
2022-12-28T07:53:36.739Z,3.97
2022-12-28T07:56:04.391Z,3.03
2022-12-28T07:58:31.333Z,4.03
2022-12-28T08:01:04.600Z,3.23
2022-12-28T08:03:31.437Z,3.97
2022-12-28T08:06:03.947Z,3.70
2022-12-28T08:08:30.758Z,4.13
2022-12-28T08:11:02.186Z,4.20
2022-12-28T08:13:30.654Z,3.83
2022-12-28T08:15:57.479Z,3.70
2022-12-28T08:18:24.107Z,3.20
2022-12-28T08:20:50.742Z,3.13
2022-12-28T08:23:18.079Z,3.87
2022-12-28T08:25:44.762Z,4.87
2022-12-28T08:28:11.374Z,3.37
2022-12-28T08:30:39.157Z,3.30
2022-12-28T08:33:05.856Z,3.30
2022-12-28T08:35:32.549Z,3.87
2022-12-28T08:37:59.260Z,3.53
2022-12-28T08:40:29.171Z,3.40
2022-12-28T08:42:57.547Z,3.40
2022-12-28T08:45:24.212Z,3.87
2022-12-28T08:47:50.989Z,2.70
2022-12-28T08:50:20.029Z,3.47
2022-12-28T08:52:47.703Z,2.83
2022-12-28T08:55:14.692Z,2.97
2022-12-28T08:57:42.016Z,2.70
2022-12-28T09:00:10.359Z,3.27
2022-12-28T09:02:37.208Z,3.20
2022-12-28T09:05:04.562Z,2.63
2022-12-28T09:07:31.206Z,3.40
2022-12-28T09:09:57.914Z,3.43
2022-12-28T09:12:24.594Z,2.97
2022-12-28T09:14:51.914Z,3.97
2022-12-28T09:17:18.639Z,3.00
2022-12-28T09:19:45.270Z,2.57
2022-12-28T09:22:12.001Z,3.23
2022-12-28T09:24:38.759Z,2.37
2022-12-28T09:27:05.558Z,2.70
2022-12-28T09:29:32.470Z,3.57
2022-12-28T09:32:00.799Z,2.87
2022-12-28T09:34:37.234Z,3.03
2022-12-28T09:37:04.643Z,3.13
2022-12-28T09:39:31.361Z,2.73
2022-12-28T09:42:01.627Z,3.17
2022-12-28T09:44:59.746Z,2.27
2022-12-28T09:47:36.035Z,3.40
2022-12-28T09:50:24.318Z,3.50
2022-12-28T09:53:04.946Z,2.73
2022-12-28T09:55:32.419Z,2.30
2022-12-28T09:58:00.372Z,2.77
2022-12-28T10:00:36.688Z,3.37
2022-12-28T10:03:11.216Z,2.90
2022-12-28T10:05:37.879Z,2.90
2022-12-28T10:08:05.371Z,2.03
2022-12-28T10:10:32.776Z,3.23
2022-12-28T10:13:37.022Z,2.80
2022-12-28T10:15:58.629Z,2.77
2022-12-28T10:18:27.911Z,2.77
2022-12-28T10:20:56.133Z,3.00
2022-12-28T10:23:27.336Z,2.80
2022-12-28T10:25:56.367Z,2.73
2022-12-28T10:28:26.893Z,2.30
2022-12-28T10:31:04.902Z,2.97
2022-12-28T10:33:32.232Z,3.00
2022-12-28T10:35:59.900Z,3.63
2022-12-28T10:38:28.975Z,2.80
2022-12-28T10:40:59.827Z,2.97
2022-12-28T10:43:29.512Z,2.40
2022-12-28T10:45:57.885Z,3.80
2022-12-28T10:48:28.799Z,2.93
2022-12-28T10:51:00.100Z,2.87
2022-12-28T10:53:29.648Z,3.17
2022-12-28T10:56:19.205Z,3.77
2022-12-28T10:58:47.377Z,3.20
2022-12-28T11:01:18.987Z,2.50
2022-12-28T11:03:57.825Z,3.83
2022-12-28T11:06:27.927Z,2.90
2022-12-28T11:09:14.800Z,3.50
2022-12-28T11:11:42.776Z,3.00
2022-12-28T11:14:15.561Z,2.97
2022-12-28T11:16:42.988Z,3.10
2022-12-28T11:19:11.333Z,3.37
2022-12-28T11:21:40.397Z,2.33
2022-12-28T11:24:11.480Z,3.00
2022-12-28T11:26:40.227Z,3.10
2022-12-28T11:29:06.861Z,3.50
2022-12-28T11:31:36.210Z,2.90
2022-12-28T11:34:05.790Z,3.20
2022-12-28T11:36:39.174Z,2.87
2022-12-28T11:39:29.974Z,2.43
2022-12-28T11:42:28.058Z,3.17
2022-12-28T11:44:52.292Z,2.83
2022-12-28T11:47:36.626Z,2.80
2022-12-28T11:50:49.319Z,3.50
2022-12-28T11:53:50.891Z,2.63
2022-12-28T11:56:18.510Z,3.60
2022-12-28T11:59:00.203Z,2.07
2022-12-28T12:01:48.484Z,3.00
2022-12-28T12:04:27.019Z,4.47
2022-12-28T12:07:44.712Z,2.33
2022-12-28T12:10:29.095Z,2.90
2022-12-28T12:12:56.690Z,2.40
2022-12-28T12:15:38.380Z,2.80
2022-12-28T12:18:06.729Z,2.93
2022-12-28T12:20:46.892Z,3.30
2022-12-28T12:23:26.156Z,3.07
2022-12-28T12:25:55.965Z,2.97
2022-12-28T12:28:37.616Z,3.50
2022-12-28T12:31:08.735Z,3.10
2022-12-28T12:33:36.721Z,2.50
2022-12-28T12:36:18.594Z,2.43
2022-12-28T12:39:14.120Z,2.13
2022-12-28T12:41:50.643Z,2.73
2022-12-28T12:44:33.604Z,2.53
2022-12-28T12:47:42.629Z,2.53
2022-12-28T12:50:42.295Z,4.00
2022-12-28T12:53:25.495Z,2.70
2022-12-28T12:56:01.670Z,2.70
2022-12-28T12:58:36.335Z,2.83
2022-12-28T13:01:22.741Z,1.90
2022-12-28T13:03:50.374Z,3.03
2022-12-28T13:06:18.950Z,2.63
2022-12-28T13:08:48.552Z,2.60
2022-12-28T13:11:16.684Z,2.50
2022-12-28T13:13:46.780Z,2.50
2022-12-28T13:16:17.979Z,2.10
2022-12-28T13:18:53.693Z,3.30
2022-12-28T13:21:21.929Z,1.77
2022-12-28T13:23:49.410Z,3.03
2022-12-28T13:26:16.670Z,3.37
2022-12-28T13:28:51.049Z,2.83
2022-12-28T13:31:20.545Z,1.90
2022-12-28T13:33:58.602Z,2.37
2022-12-28T13:36:25.744Z,2.00
2022-12-28T13:39:11.705Z,2.90
2022-12-28T13:41:42.563Z,2.90
2022-12-28T13:44:29.813Z,2.47
2022-12-28T13:47:01.496Z,2.37
2022-12-28T13:49:31.027Z,2.33
2022-12-28T13:51:57.686Z,2.10
2022-12-28T13:54:24.909Z,1.83
2022-12-28T13:57:08.581Z,2.63
2022-12-28T13:59:43.033Z,3.00
2022-12-28T14:02:15.001Z,2.47
2022-12-28T14:04:52.194Z,3.13
2022-12-28T14:07:22.006Z,2.73
2022-12-28T14:09:49.525Z,2.33
2022-12-28T14:12:17.024Z,2.43
2022-12-28T14:14:45.531Z,2.47
2022-12-28T14:17:13.035Z,3.30
2022-12-28T14:19:40.238Z,2.80
2022-12-28T14:22:25.949Z,3.33
2022-12-28T14:25:04.929Z,2.83
2022-12-28T14:27:36.362Z,3.20
2022-12-28T14:30:05.966Z,2.60
2022-12-28T14:32:39.007Z,2.87
2022-12-28T14:35:17.788Z,2.13
2022-12-28T14:37:45.999Z,3.20
2022-12-28T14:40:27.346Z,2.43
2022-12-28T14:42:54.901Z,2.33
2022-12-28T14:45:34.185Z,2.87
2022-12-28T14:48:00.887Z,3.07
2022-12-28T14:50:30.774Z,2.83
2022-12-28T14:53:10.509Z,3.50
2022-12-28T14:55:53.185Z,2.70
2022-12-28T14:58:22.533Z,3.50
2022-12-28T15:00:58.555Z,3.47
2022-12-28T15:03:28.182Z,2.43
2022-12-28T15:05:56.092Z,3.17
2022-12-28T15:08:22.806Z,2.33
2022-12-28T15:10:51.614Z,3.27
2022-12-28T15:13:19.756Z,2.83
2022-12-28T15:15:53.830Z,3.67
2022-12-28T15:18:21.285Z,3.77
2022-12-28T15:20:47.890Z,4.03
2022-12-28T15:23:15.021Z,3.17
2022-12-28T15:25:41.783Z,3.73
2022-12-28T15:28:08.483Z,4.03
2022-12-28T15:30:38.394Z,4.13
2022-12-28T15:33:05.136Z,2.90
2022-12-28T15:35:33.303Z,3.90
2022-12-28T15:37:59.974Z,3.23
2022-12-28T15:40:26.614Z,3.57
2022-12-28T15:42:53.240Z,3.90
2022-12-28T15:45:19.939Z,2.90
2022-12-28T15:47:46.587Z,3.20
2022-12-28T15:50:13.246Z,3.30
2022-12-28T15:52:40.613Z,3.20
2022-12-28T15:55:07.838Z,4.40
2022-12-28T15:57:34.520Z,3.53
2022-12-28T16:00:01.299Z,3.30
2022-12-28T16:02:28.112Z,3.37
2022-12-28T16:04:55.363Z,3.33
2022-12-28T16:07:22.002Z,3.30
2022-12-28T16:09:49.288Z,2.80
2022-12-28T16:12:16.481Z,3.33
2022-12-28T16:14:46.946Z,3.33
2022-12-28T16:17:14.283Z,3.40
2022-12-28T16:19:40.942Z,3.57
2022-12-28T16:22:07.748Z,2.70
2022-12-28T16:24:35.524Z,3.03
2022-12-28T16:27:03.199Z,3.40
2022-12-28T16:29:29.851Z,3.67
2022-12-28T16:31:59.386Z,2.63
2022-12-28T16:34:27.596Z,2.77
2022-12-28T16:36:57.433Z,3.00
2022-12-28T16:39:24.293Z,3.33
2022-12-28T16:41:50.900Z,3.20
2022-12-28T16:44:19.836Z,3.03
2022-12-28T16:46:46.699Z,2.83
2022-12-28T16:49:13.414Z,2.40
2022-12-28T16:51:41.944Z,3.50
2022-12-28T16:54:11.567Z,2.90
2022-12-28T16:56:38.168Z,2.93
2022-12-28T16:59:04.760Z,2.50
2022-12-28T17:01:32.129Z,2.53
2022-12-28T17:04:03.762Z,2.57
2022-12-28T17:06:31.179Z,3.07
2022-12-28T17:09:00.042Z,2.50
2022-12-28T17:11:26.714Z,2.37
2022-12-28T17:13:53.378Z,2.63
2022-12-28T17:16:20.072Z,2.37
2022-12-28T17:18:47.410Z,2.30
2022-12-28T17:21:14.067Z,2.53
2022-12-28T17:23:40.675Z,2.60
2022-12-28T17:26:07.461Z,2.23
2022-12-28T17:28:34.070Z,3.47
2022-12-28T17:31:07.112Z,3.17
2022-12-28T17:33:38.955Z,2.97
2022-12-28T17:36:08.195Z,3.03
2022-12-28T17:38:34.915Z,3.43
2022-12-28T17:41:06.888Z,2.93
2022-12-28T17:43:33.572Z,3.13
2022-12-28T17:46:01.348Z,2.57
2022-12-28T17:48:29.579Z,2.90
2022-12-28T17:50:58.147Z,2.63
2022-12-28T17:53:25.493Z,2.87
2022-12-28T17:55:52.141Z,2.60
2022-12-28T17:58:18.762Z,1.83
2022-12-28T18:00:45.418Z,4.20
2022-12-28T18:03:12.056Z,3.03
2022-12-28T18:05:38.691Z,2.43
2022-12-28T18:08:05.481Z,2.93
2022-12-28T18:10:32.783Z,2.87
2022-12-28T18:12:59.417Z,2.37
2022-12-28T18:15:31.355Z,2.40
2022-12-28T18:17:59.689Z,2.80
2022-12-28T18:20:26.403Z,2.40
2022-12-28T18:22:53.208Z,2.73
2022-12-28T18:25:19.952Z,3.07
2022-12-28T18:27:47.364Z,3.17
2022-12-28T18:30:14.213Z,2.43
2022-12-28T18:32:40.959Z,4.00
2022-12-28T18:35:08.924Z,3.00
2022-12-28T18:37:35.780Z,2.90
2022-12-28T18:40:02.499Z,2.30
2022-12-28T18:42:29.228Z,2.60
2022-12-28T18:44:57.358Z,2.37
2022-12-28T18:47:24.059Z,4.37
2022-12-28T18:49:50.901Z,2.60
2022-12-28T18:52:18.001Z,3.43
2022-12-28T18:54:44.946Z,2.70
2022-12-28T18:57:11.602Z,2.60
2022-12-28T18:59:38.220Z,2.90
2022-12-28T19:02:07.413Z,2.90
2022-12-28T19:04:35.092Z,2.37
2022-12-28T19:07:02.064Z,2.97
2022-12-28T19:09:28.729Z,2.53
2022-12-28T19:11:55.467Z,3.00
2022-12-28T19:14:22.249Z,3.13
2022-12-28T19:16:48.963Z,2.43
2022-12-28T19:19:17.217Z,2.40
2022-12-28T19:21:44.444Z,2.93
2022-12-28T19:24:13.097Z,2.50
2022-12-28T19:26:39.834Z,2.97
2022-12-28T19:29:07.173Z,2.23
2022-12-28T19:31:34.503Z,3.13
2022-12-28T19:34:01.449Z,2.77
2022-12-28T19:36:28.762Z,3.33
2022-12-28T19:38:55.650Z,2.87
2022-12-28T19:41:22.520Z,2.77
2022-12-28T19:43:49.418Z,2.97
2022-12-28T19:46:19.021Z,2.60
2022-12-28T19:48:45.867Z,3.00
2022-12-28T19:51:13.511Z,2.80
2022-12-28T19:53:41.051Z,3.17
2022-12-28T19:56:11.070Z,3.57
2022-12-28T19:58:38.739Z,3.07
2022-12-28T20:01:06.610Z,3.40
2022-12-28T20:03:33.585Z,3.30
2022-12-28T20:06:10.668Z,3.50
2022-12-28T20:08:37.910Z,3.60
2022-12-28T20:11:06.110Z,6.43
2022-12-28T20:13:33.303Z,3.90
2022-12-28T20:16:00.353Z,4.00
2022-12-28T20:18:27.174Z,4.00
2022-12-28T20:23:47.327Z,3.70
2022-12-28T20:26:14.719Z,4.67
2022-12-28T20:28:41.427Z,4.00
2022-12-28T20:31:11.576Z,3.30
2022-12-28T20:33:38.563Z,3.40
2022-12-28T20:36:07.323Z,3.83
2022-12-28T20:38:34.569Z,3.33
2022-12-28T20:41:02.933Z,4.00
2022-12-28T20:43:30.242Z,3.97
2022-12-28T20:45:57.079Z,5.17
2022-12-28T20:48:24.064Z,6.33
2022-12-28T20:50:55.934Z,5.53
2022-12-28T20:53:22.630Z,4.53
2022-12-28T20:55:49.321Z,4.40
2022-12-28T20:58:15.985Z,5.87
2022-12-28T21:00:43.338Z,5.30
2022-12-28T21:03:10.687Z,3.80
2022-12-28T21:05:37.437Z,4.33
2022-12-28T21:08:04.328Z,4.53
2022-12-28T21:10:30.971Z,6.77
2022-12-28T21:13:29.424Z,7.37
2022-12-28T21:15:57.177Z,4.70
2022-12-28T21:18:23.969Z,6.10
2022-12-28T21:20:54.744Z,7.00
2022-12-28T21:23:21.842Z,4.27
2022-12-28T21:25:48.549Z,4.50
2022-12-28T21:28:15.319Z,4.00
2022-12-28T21:30:41.940Z,5.27
2022-12-28T21:33:09.580Z,3.90
2022-12-28T21:35:36.287Z,4.10
2022-12-28T21:38:04.653Z,4.60
2022-12-28T21:40:31.287Z,4.00
2022-12-28T21:42:58.190Z,4.17
2022-12-28T21:45:24.910Z,3.50
2022-12-28T21:47:51.564Z,4.17
2022-12-28T21:50:19.058Z,3.13
2022-12-28T21:52:45.714Z,3.80
2022-12-28T21:55:30.682Z,4.00
2022-12-28T21:57:59.662Z,3.33
2022-12-28T22:00:44.980Z,3.47
2022-12-28T22:03:38.685Z,2.90
2022-12-28T22:06:08.501Z,2.33
2022-12-28T22:08:58.523Z,2.60
2022-12-28T22:11:43.412Z,2.40
2022-12-28T22:14:10.063Z,2.60
2022-12-28T22:16:36.789Z,2.53
2022-12-28T22:19:04.558Z,2.40
2022-12-28T22:21:32.004Z,2.50
2022-12-28T22:23:58.726Z,2.53
2022-12-28T22:26:25.458Z,2.50
2022-12-28T22:28:52.111Z,3.17
2022-12-28T22:31:18.726Z,2.47
2022-12-28T22:33:45.437Z,2.27
2022-12-28T22:36:13.970Z,2.27
2022-12-28T22:38:41.581Z,2.97
2022-12-28T22:41:08.298Z,2.90
2022-12-28T22:43:35.224Z,2.33
2022-12-28T22:46:03.699Z,2.50
2022-12-28T22:48:31.087Z,2.93
2022-12-28T22:51:01.794Z,2.53
2022-12-28T22:53:28.427Z,2.33
2022-12-28T22:55:59.525Z,2.87
2022-12-28T22:58:26.795Z,2.20
2022-12-28T23:01:02.059Z,2.30
2022-12-28T23:03:28.802Z,2.10
2022-12-28T23:05:55.463Z,2.13
2022-12-28T23:08:22.167Z,2.53
2022-12-28T23:10:56.931Z,2.07
2022-12-28T23:13:25.990Z,2.87
2022-12-28T23:15:57.205Z,3.70
2022-12-28T23:18:42.366Z,3.57
2022-12-28T23:21:34.312Z,2.30
2022-12-28T23:24:19.372Z,2.07
2022-12-28T23:27:04.047Z,2.33
2022-12-28T23:29:31.592Z,1.67
2022-12-28T23:31:58.384Z,2.07
2022-12-28T23:34:25.635Z,2.10
2022-12-28T23:36:52.599Z,2.37
2022-12-28T23:39:19.277Z,2.10
2022-12-28T23:41:49.077Z,2.37
2022-12-28T23:44:17.153Z,2.40
2022-12-28T23:46:44.619Z,2.10
2022-12-28T23:49:11.922Z,2.50
2022-12-28T23:51:38.605Z,1.90
2022-12-28T23:54:05.352Z,2.50
2022-12-28T23:56:31.984Z,2.20
2022-12-28T23:58:58.596Z,1.90
